Terminal Aerodrome Forecast
Issued by NWS Buffalo, NY

Home | Current Version | Previous Version | Text Only | Print | Product List | Glossary On
Versions: 1 2 3 4 5 6 7 8 9 10 11 12 13 14 15 16 17 18 19 20 21 22 23 24 25 26 27 28 29 30 31
000
FTUS41 KBUF 230700 AAB
TAFROC
TAF AMD
KROC 230702Z 2307/2406 29011G20KT P6SM -SHRA OVC015
     FM230800 31010G20KT 5SM -SHRA OVC012
     FM231200 31015G22KT P6SM OVC012
     FM231700 30019KT P6SM BKN025
     FM232100 30020KT P6SM SCT035
     FM240100 30013KT P6SM SKC=

USA.gov is the U.S. government's official web portal to all federal, state and local government web resources and services.